Time;durP1;ratioP1;P1;durP2;ratioP2;P2;SDS_P1;SDS_P2;PMS_P1;PMS_P2;Temp;Humidity;BMP_temperature;BMP_pressure;BME280_temperature;BME280_humidity;BME280_pressure;Samples;Min_cycle;Max_cycle;Signal;HPM_P1;HPM_P2
2021/01/29 00:00:39;;;;;;;;;;;;;;;18.27;64.94;101007.69;4933434;29;1265;-73
2021/01/29 00:03:07;;;;;;;;;;;;;;;18.29;65.13;101010.25;4916169;29;1277;-72
2021/01/29 00:05:36;;;;;;;;;;;;;;;18.28;65.01;101008.53;4933661;29;1366;-73
2021/01/29 00:08:02;;;;;;;;;;;;;;;18.28;65.04;101003.25;4915894;29;1960;-71
2021/01/29 00:10:29;;;;;;;;;;;;;;;18.27;65.02;101010.31;4933554;29;1403;-73
2021/01/29 00:13:08;;;;;;;;;;;;;;;18.25;65.06;100995.50;4933210;29;984;-69
2021/01/29 00:15:34;;;;;;;;;;;;;;;18.26;65.16;100997.22;4933483;29;1297;-72
2021/01/29 00:18:00;;;;;;;;;;;;;;;18.24;65.09;100999.09;4933109;29;1069;-71
2021/01/29 00:20:28;;;;;;;;;;;;;;;18.23;65.18;100992.09;4933346;29;1370;-73
2021/01/29 00:22:56;;;;;;;;;;;;;;;18.24;65.33;100996.47;4915834;29;1184;-72
2021/01/29 00:25:28;;;;;;;;;;;;;;;18.24;65.40;100983.28;4915960;29;1282;-74
2021/01/29 00:27:55;;;;;;;;;;;;;;;18.23;65.25;100984.19;4932912;29;1917;-71
2021/01/29 00:30:22;;;;;;;;;;;;;;;18.22;65.30;100982.47;4915695;29;1273;-71
2021/01/29 00:32:50;;;;;;;;;;;;;;;18.19;65.41;100978.22;4932924;29;771;-69
2021/01/29 00:35:18;;;;;;;;;;;;;;;18.20;65.43;100977.31;4933262;29;1293;-69
2021/01/29 00:37:46;;;;;;;;;;;;;;;18.20;65.41;100966.75;4933108;29;917;-71
2021/01/29 00:40:12;;;;;;;;;;;;;;;18.21;65.50;100973.72;4932944;29;1302;-71
2021/01/29 00:42:39;;;;;;;;;;;;;;;18.19;65.45;100965.03;4914825;29;1266;-72
2021/01/29 00:45:07;;;;;;;;;;;;;;;18.21;65.61;100972.88;4915766;29;1278;-70
2021/01/29 00:47:33;;;;;;;;;;;;;;;18.20;65.56;100965.91;4915458;29;1907;-72
2021/01/29 00:49:59;;;;;;;;;;;;;;;18.19;65.51;100966.81;4933029;29;1300;-71
2021/01/29 00:52:26;;;;;;;;;;;;;;;18.19;65.67;100958.91;4932639;29;898;-71
2021/01/29 00:54:52;;;;;;;;;;;;;;;18.20;65.56;100963.25;4932783;29;1292;-72
2021/01/29 00:57:18;;;;;;;;;;;;;;;18.18;65.63;100957.22;4915180;29;1202;-73
2021/01/29 00:59:44;;;;;;;;;;;;;;;18.18;65.52;100959.84;4930957;29;1352;-72
2021/01/29 01:02:11;;;;;;;;;;;;;;;18.15;65.66;100946.84;4915394;29;796;-73
2021/01/29 01:04:37;;;;;;;;;;;;;;;18.15;65.68;100949.47;4915010;29;1329;-70
2021/01/29 01:07:03;;;;;;;;;;;;;;;18.14;65.51;100945.13;4932223;29;1982;-73
2021/01/29 01:09:30;;;;;;;;;;;;;;;18.16;65.71;100953.78;4932190;29;1245;-72
2021/01/29 01:11:56;;;;;;;;;;;;;;;18.15;65.78;100944.19;4915138;29;930;-73
2021/01/29 01:14:22;;;;;;;;;;;;;;;18.16;65.82;100949.38;4932225;29;929;-72
2021/01/29 01:16:50;;;;;;;;;;;;;;;18.15;65.93;100945.03;4914675;29;1326;-73
2021/01/29 01:19:16;;;;;;;;;;;;;;;18.13;65.92;100928.44;4914789;29;1314;-72
2021/01/29 01:21:43;;;;;;;;;;;;;;;18.14;66.01;100932.78;4932354;29;1293;-72
2021/01/29 01:24:09;;;;;;;;;;;;;;;18.14;66.04;100930.16;4914792;29;1209;-73
2021/01/29 01:26:36;;;;;;;;;;;;;;;18.12;66.02;100932.00;4930452;29;1222;-73
2021/01/29 01:29:02;;;;;;;;;;;;;;;18.14;66.17;100929.31;4931678;29;1911;-71
2021/01/29 01:31:28;;;;;;;;;;;;;;;18.14;66.10;100932.78;4931767;29;1207;-71
2021/01/29 01:33:55;;;;;;;;;;;;;;;18.12;66.15;100920.63;4931899;29;1341;-73
2021/01/29 01:36:21;;;;;;;;;;;;;;;18.12;66.08;100918.00;4931894;29;1222;-72
2021/01/29 01:38:48;;;;;;;;;;;;;;;18.10;66.22;100919.84;4931820;29;1061;-72
2021/01/29 01:41:15;;;;;;;;;;;;;;;18.11;66.15;100911.00;4931646;29;1372;-71
2021/01/29 01:43:41;;;;;;;;;;;;;;;18.10;66.21;100911.94;4931843;29;830;-74
2021/01/29 01:46:09;;;;;;;;;;;;;;;18.11;66.01;100903.94;4914559;29;1360;-73
2021/01/29 01:48:42;;;;;;;;;;;;;;;18.11;66.44;100911.00;4914616;29;1976;-73
2021/01/29 01:51:21;;;;;;;;;;;;;;;18.08;66.02;100912.03;4930528;29;1492;-74
2021/01/29 01:53:49;;;;;;;;;;;;;;;18.07;66.02;100915.56;4915042;29;1262;-74
2021/01/29 01:56:16;;;;;;;;;;;;;;;18.08;66.00;100919.06;4918770;29;1328;-74
2021/01/29 01:58:45;;;;;;;;;;;;;;;18.08;66.20;100921.72;4935682;29;795;-74
2021/01/29 02:01:11;;;;;;;;;;;;;;;18.08;66.06;100917.28;4935723;29;1203;-74
2021/01/29 02:03:37;;;;;;;;;;;;;;;18.09;66.34;100899.69;4918575;29;780;-73
2021/01/29 02:06:04;;;;;;;;;;;;;;;18.09;66.50;100892.63;4902314;29;1437;-72
2021/01/29 02:08:33;;;;;;;;;;;;;;;18.08;66.67;100874.25;4935498;29;1911;-74
2021/01/29 02:10:59;;;;;;;;;;;;;;;18.05;66.80;100885.81;4918513;29;1355;-74
2021/01/29 02:13:26;;;;;;;;;;;;;;;18.07;66.98;100877.81;4918188;29;1210;-74
2021/01/29 02:15:57;;;;;;;;;;;;;;;18.07;67.00;100870.75;4918415;29;1305;-74
2021/01/29 02:18:30;;;;;;;;;;;;;;;18.06;66.72;100863.78;4918474;29;1435;-73
2021/01/29 02:21:15;;;;;;;;;;;;;;;18.05;66.74;100870.00;4936006;29;1289;-72
2021/01/29 02:24:00;;;;;;;;;;;;;;;18.06;66.66;100869.03;4935549;29;874;-73
2021/01/29 02:26:44;;;;;;;;;;;;;;;18.07;67.11;100864.63;4935341;29;1234;-73
2021/01/29 02:29:14;;;;;;;;;;;;;;;18.07;66.86;100857.59;4918064;29;1976;-74
2021/01/29 02:31:49;;;;;;;;;;;;;;;18.05;66.88;100869.16;4933712;29;1391;-74
2021/01/29 02:34:28;;;;;;;;;;;;;;;18.06;66.93;100855.00;4918101;29;1187;-73
2021/01/29 02:37:07;;;;;;;;;;;;;;;18.06;66.77;100855.00;4918030;29;799;-74
2021/01/29 02:39:42;;;;;;;;;;;;;;;18.05;67.04;100837.50;4935097;29;1285;-73
2021/01/29 02:42:14;;;;;;;;;;;;;;;18.07;66.75;100835.63;4935060;29;1796;-74
2021/01/29 02:44:59;;;;;;;;;;;;;;;18.05;66.97;100834.88;4917834;29;1277;-73
2021/01/29 02:47:27;;;;;;;;;;;;;;;18.07;66.83;100825.94;4933453;29;1907;-73
2021/01/29 02:50:10;;;;;;;;;;;;;;;18.05;66.97;100826.97;4933556;29;1269;-74
2021/01/29 02:52:55;;;;;;;;;;;;;;;18.04;67.04;100826.09;4935004;29;788;-74
2021/01/29 02:55:29;;;;;;;;;;;;;;;18.05;66.78;100824.34;4934574;29;1273;-74
2021/01/29 02:58:04;;;;;;;;;;;;;;;18.03;66.79;100825.25;4934648;29;807;-74
2021/01/29 03:00:31;;;;;;;;;;;;;;;18.05;67.06;100824.34;4917304;29;1305;-74
2021/01/29 03:03:19;;;;;;;;;;;;;;;18.02;67.09;100815.63;4917586;29;1041;-74
2021/01/29 03:05:55;;;;;;;;;;;;;;;18.06;67.03;100818.09;4934059;29;1250;-74
2021/01/29 03:08:33;;;;;;;;;;;;;;;18.05;66.96;100813.78;4934274;29;1918;-74
2021/01/29 03:11:12;;;;;;;;;;;;;;;18.03;66.87;100801.53;4917354;29;1250;-74
2021/01/29 03:13:41;;;;;;;;;;;;;;;18.04;67.05;100805.03;4917152;29;1241;-72
2021/01/29 03:16:26;;;;;;;;;;;;;;;18.03;67.11;100804.16;4934631;29;1217;-73
2021/01/29 03:18:57;;;;;;;;;;;;;;;18.03;66.93;100806.81;4934053;29;1069;-72
2021/01/29 03:21:36;;;;;;;;;;;;;;;18.03;67.07;100801.53;4917015;29;1270;-73
2021/01/29 03:24:06;;;;;;;;;;;;;;;18.03;67.29;100796.25;4916802;29;1305;-71
2021/01/29 03:26:42;;;;;;;;;;;;;;;18.03;67.18;100806.81;4934032;29;1302;-73
2021/01/29 03:29:11;;;;;;;;;;;;;;;18.03;67.33;100798.91;4916715;29;1927;-71
2021/01/29 03:31:40;;;;;;;;;;;;;;;18.02;67.23;100802.44;4934053;29;1305;-72
2021/01/29 03:34:10;;;;;;;;;;;;;;;18.03;67.04;100805.94;4933945;29;935;-73
2021/01/29 03:36:43;;;;;;;;;;;;;;;18.03;67.15;100809.44;4933710;29;1312;-74
2021/01/29 03:39:23;;;;;;;;;;;;;;;18.05;67.19;100813.78;4933921;29;1146;-73
2021/01/29 03:42:00;;;;;;;;;;;;;;;18.05;67.30;100817.28;4916745;29;1397;-73
2021/01/29 03:44:44;;;;;;;;;;;;;;;18.06;67.07;100818.09;4933808;29;1148;-73
2021/01/29 03:47:19;;;;;;;;;;;;;;;18.05;67.13;100832.25;4916707;29;1906;-73
2021/01/29 03:50:04;;;;;;;;;;;;;;;18.03;67.20;100833.16;4933726;29;1246;-72
2021/01/29 03:52:49;;;;;;;;;;;;;;;18.04;66.85;100812.94;4933889;29;799;-72
2021/01/29 03:55:36;;;;;;;;;;;;;;;18.04;67.22;100820.84;4933741;29;1297;-71
2021/01/29 03:58:08;;;;;;;;;;;;;;;18.05;67.11;100805.88;4933350;29;1557;-72
2021/01/29 04:00:53;;;;;;;;;;;;;;;18.03;67.29;100806.81;4933863;29;1252;-71
2021/01/29 04:03:26;;;;;;;;;;;;;;;18.04;67.08;100810.28;4915952;29;1294;-72
2021/01/29 04:05:55;;;;;;;;;;;;;;;18.03;67.07;100803.31;4933113;29;1332;-73
2021/01/29 04:08:25;;;;;;;;;;;;;;;18.05;67.21;100813.78;4933216;29;1911;-73
2021/01/29 04:10:54;;;;;;;;;;;;;;;18.04;67.15;100799.75;4933097;29;1347;-72
2021/01/29 04:13:26;;;;;;;;;;;;;;;18.03;67.31;100792.75;4916465;29;803;-73
2021/01/29 04:15:53;;;;;;;;;;;;;;;18.03;67.14;100783.06;4915615;29;1442;-72
2021/01/29 04:18:36;;;;;;;;;;;;;;;18.02;67.15;100775.28;4915901;29;1092;-72
2021/01/29 04:21:21;;;;;;;;;;;;;;;18.03;67.07;100782.22;4916082;29;1376;-72
2021/01/29 04:23:53;;;;;;;;;;;;;;;18.03;67.08;100788.34;4915931;29;1121;-72
2021/01/29 04:26:22;;;;;;;;;;;;;;;18.02;67.13;100775.28;4931460;29;1482;-70
2021/01/29 04:29:02;;;;;;;;;;;;;;;18.01;66.99;100760.38;4932824;29;1915;-72
2021/01/29 04:31:30;;;;;;;;;;;;;;;18.00;67.01;100767.44;4933044;29;1341;-73
2021/01/29 04:33:58;;;;;;;;;;;;;;;18.01;67.00;100753.31;4932831;29;1142;-75
2021/01/29 04:36:27;;;;;;;;;;;;;;;18.02;67.05;100770.81;4933218;29;1253;-72
2021/01/29 04:39:03;;;;;;;;;;;;;;;18.03;66.99;100772.53;4932777;29;1132;-72
2021/01/29 04:42:08;;;;;;;;;;;;;;;18.02;66.99;100756.81;4915518;29;1580;-72
2021/01/29 04:44:53;;;;;;;;;;;;;;;18.02;66.82;100759.44;4873733;29;1254;-72
2021/01/29 04:47:19;;;;;;;;;;;;;;;18.01;67.01;100766.50;4928103;29;1902;-73
2021/01/29 04:50:05;;;;;;;;;;;;;;;18.00;67.15;100759.53;4932751;29;1265;-73
2021/01/29 04:52:32;;;;;;;;;;;;;;;18.00;67.00;100762.16;4933137;29;835;-75
2021/01/29 04:55:01;;;;;;;;;;;;;;;18.01;66.93;100753.31;4932911;29;1383;-73
2021/01/29 04:57:36;;;;;;;;;;;;;;;18.00;67.00;100756.03;4932526;29;768;-73
2021/01/29 05:00:10;;;;;;;;;;;;;;;18.01;66.98;100760.38;4932689;29;1265;-72
2021/01/29 05:02:49;;;;;;;;;;;;;;;18.01;66.79;100757.75;4931103;29;1224;-73
2021/01/29 05:05:36;;;;;;;;;;;;;;;18.02;66.99;100759.44;4932601;29;1265;-72
2021/01/29 05:08:26;;;;;;;;;;;;;;;18.00;67.05;100772.69;4932625;29;1972;-72
2021/01/29 05:11:11;;;;;;;;;;;;;;;17.99;67.11;100760.44;4932350;29;1268;-72
2021/01/29 05:13:37;;;;;;;;;;;;;;;18.00;66.95;100750.75;4932484;29;1106;-73
2021/01/29 05:16:24;;;;;;;;;;;;;;;17.99;67.08;100751.72;4932571;29;1401;-73
2021/01/29 05:19:09;;;;;;;;;;;;;;;18.01;66.82;100757.75;4932278;29;1183;-71
2021/01/29 05:21:47;;;;;;;;;;;;;;;17.99;67.03;100744.63;4915210;29;1234;-71
2021/01/29 05:24:17;;;;;;;;;;;;;;;18.00;67.00;100753.41;4932166;29;1282;-71
2021/01/29 05:27:04;;;;;;;;;;;;;;;17.99;66.94;100755.16;4914668;29;1317;-71
2021/01/29 05:29:30;;;;;;;;;;;;;;;17.99;66.80;100726.19;4914259;29;1910;-72
2021/01/29 05:32:15;;;;;;;;;;;;;;;17.97;66.98;100735.09;4931888;29;831;-72
2021/01/29 05:34:47;;;;;;;;;;;;;;;18.00;66.97;100745.47;4932288;29;1399;-72
2021/01/29 05:37:35;;;;;;;;;;;;;;;18.00;66.97;100756.88;4930933;29;1195;-72
2021/01/29 05:40:07;;;;;;;;;;;;;;;18.01;66.78;100757.75;4914451;29;1654;-72
2021/01/29 05:42:44;;;;;;;;;;;;;;;17.99;66.89;100759.63;4931737;29;876;-72
2021/01/29 05:45:29;;;;;;;;;;;;;;;17.98;66.84;100757.91;4914693;29;1344;-73
2021/01/29 05:47:55;;;;;;;;;;;;;;;17.98;66.68;100752.63;4931735;29;1959;-72
2021/01/29 05:50:30;;;;;;;;;;;;;;;17.99;66.94;100763.06;4914676;29;1458;-73
2021/01/29 05:53:12;;;;;;;;;;;;;;;18.05;67.02;100763.72;4931707;29;1043;-72
2021/01/29 05:55:47;;;;;;;;;;;;;;;18.09;66.62;100767.88;4958742;28;1371;-73
2021/01/29 05:58:23;;;;;;;;;;;;;;;18.06;66.51;100766.25;4959932;28;1382;-73
2021/01/29 06:00:49;;;;;;;;;;;;;;;18.02;66.88;100765.56;4960050;28;1293;-72
2021/01/29 06:03:34;;;;;;;;;;;;;;;17.99;67.01;100765.72;4948115;28;1267;-75
2021/01/29 06:06:49;;;;;;;;;;;;;;;17.99;67.17;100781.53;4986192;23;1938;-71
2021/01/29 06:09:31;;;;;;;;;;;;;;;17.98;66.92;100766.66;4970008;28;1918;-73
2021/01/29 06:12:05;;;;;;;;;;;;;;;17.98;67.11;100763.19;4970262;28;1095;-75
2021/01/29 06:14:38;;;;;;;;;;;;;;;17.99;67.06;100763.06;4952711;28;1287;-72
2021/01/29 06:17:09;;;;;;;;;;;;;;;18.00;66.83;100754.25;4970391;28;972;-74
2021/01/29 06:19:57;;;;;;;;;;;;;;;;;;;;;
2021/01/29 06:22:53;;;;;;;;;;;;;;;18.00;66.82;100777.97;4969803;28;814;-74
2021/01/29 06:25:25;;;;;;;;;;;;;;;18.00;66.78;100775.34;4952174;28;1519;-73
2021/01/29 06:27:54;;;;;;;;;;;;;;;18.12;67.11;100779.09;4969808;28;1965;-74
2021/01/29 06:30:20;;;;;;;;;;;;;;;18.10;66.52;100786.25;4969672;28;1293;-76
2021/01/29 06:33:15;;;;;;;;;;;;;;;;;;;;;
2021/01/29 06:35:44;;;;;;;;;;;;;;;18.17;66.57;100792.03;4952411;28;1300;-73
2021/01/29 06:38:29;;;;;;;;;;;;;;;18.21;66.31;100783.03;4969706;28;767;-72
2021/01/29 06:41:28;;;;;;;;;;;;;;;18.22;65.94;100797.91;4952199;28;1349;-71
2021/01/29 06:44:09;;;;;;;;;;;;;;;18.15;66.44;100800.03;4956160;28;850;-71
2021/01/29 06:46:48;;;;;;;;;;;;;;;18.17;66.68;100810.50;4955952;28;1340;-69
2021/01/29 06:49:33;;;;;;;;;;;;;;;18.27;66.48;100811.72;4973209;28;1969;-71
2021/01/29 06:52:18;;;;;;;;;;;;;;;18.25;66.43;100808.28;4956168;28;1323;-71
2021/01/29 06:55:01;;;;;;;;;;;;;;;18.39;66.89;100826.88;4973105;28;1284;-73
2021/01/29 06:57:40;;;;;;;;;;;;;;;18.36;66.43;100832.31;4972859;28;772;-70
2021/01/29 07:00:14;;;;;;;;;;;;;;;18.28;66.32;100834.50;4972966;28;1308;-70
2021/01/29 07:03:01;;;;;;;;;;;;;;;18.21;66.42;100836.59;4976507;28;1496;-72
2021/01/29 07:05:40;;;;;;;;;;;;;;;18.20;66.39;100855.16;4945595;28;1294;-75
2021/01/29 07:08:25;;;;;;;;;;;;;;;18.18;66.47;100852.59;4954480;28;1918;-74
2021/01/29 07:11:10;;;;;;;;;;;;;;;18.18;66.61;100870.22;4953512;28;1327;-73
2021/01/29 07:13:45;;;;;;;;;;;;;;;18.18;66.14;100870.22;4953752;29;973;-76
2021/01/29 07:16:14;;;;;;;;;;;;;;;18.18;66.51;100871.03;4975473;28;1332;-77
2021/01/29 07:18:46;;;;;;;;;;;;;;;18.17;66.24;100869.34;4981973;28;1528;-76
2021/01/29 07:21:31;;;;;;;;;;;;;;;18.23;66.50;100884.00;4973085;28;1245;-76
2021/01/29 07:24:16;;;;;;;;;;;;;;;18.29;66.79;100875.75;4972536;28;764;-73
2021/01/29 07:26:55;;;;;;;;;;;;;;;18.30;66.88;100882.75;4955182;28;1356;-75
2021/01/29 07:29:27;;;;;;;;;;;;;;;18.22;64.15;100887.56;4973849;28;1895;-76
2021/01/29 07:31:55;;;;;;;;;;;;;;;18.21;66.50;100889.34;4974498;28;1280;-72
2021/01/29 07:34:22;;;;;;;;;;;;;;;18.25;66.43;100887.41;4990898;28;867;-71
2021/01/29 07:36:48;;;;;;;;;;;;;;;18.23;66.19;100894.53;4955240;28;1252;-74
2021/01/29 07:39:33;;;;;;;;;;;;;;;18.20;65.94;100895.56;4977723;28;1568;-73
2021/01/29 07:42:04;;;;;;;;;;;;;;;18.26;66.34;100897.03;4992516;28;1293;-70
2021/01/29 07:44:48;;;;;;;;;;;;;;;18.26;66.06;100895.25;4991689;28;1171;-75
2021/01/29 07:47:24;;;;;;;;;;;;;;;18.29;66.14;100899.50;4974181;28;760;-69
2021/01/29 07:50:15;;;;;;;;;;;;;;;18.24;66.14;100898.91;4991981;28;1902;-68
2021/01/29 07:52:45;;;;;;;;;;;;;;;18.32;65.19;100899.34;4991205;28;921;-74
2021/01/29 07:55:20;;;;;;;;;;;;;;;18.26;65.39;100897.03;4974271;28;1716;-72
2021/01/29 07:57:46;;;;;;;;;;;;;;;18.21;65.63;100901.69;4962938;28;1267;-72
2021/01/29 08:00:15;;;;;;;;;;;;;;;18.16;65.72;100901.91;4939600;28;1289;-72
2021/01/29 08:02:45;;;;;;;;;;;;;;;18.17;65.55;100908.06;4952909;28;835;-75
2021/01/29 08:05:14;;;;;;;;;;;;;;;18.16;65.58;100904.56;4924734;28;1464;-73
2021/01/29 08:07:45;;;;;;;;;;;;;;;18.15;65.62;100902.00;4933589;29;1910;-73
2021/01/29 08:10:26;;;;;;;;;;;;;;;18.15;65.71;100912.56;4933974;29;1365;-68
2021/01/29 08:13:01;;;;;;;;;;;;;;;18.21;65.87;100913.06;4956398;28;1322;-73
2021/01/29 08:15:43;;;;;;;;;;;;;;;18.19;65.52;100914.94;4970285;28;1270;-74
2021/01/29 08:18:29;;;;;;;;;;;;;;;18.16;65.64;100917.75;4937278;28;1194;-72
2021/01/29 08:21:05;;;;;;;;;;;;;;;18.16;65.64;100916.88;4970182;28;1237;-72
2021/01/29 08:23:39;;;;;;;;;;;;;;;18.16;65.82;100924.78;4952236;28;815;-74
2021/01/29 08:26:24;;;;;;;;;;;;;;;18.15;65.63;100915.19;4952214;28;1490;-73
2021/01/29 08:28:50;;;;;;;;;;;;;;;18.15;65.75;100920.47;4970179;28;1906;-73
2021/01/29 08:31:25;;;;;;;;;;;;;;;18.14;65.55;100913.47;4955731;28;1281;-73
2021/01/29 08:34:15;;;;;;;;;;;;;;;18.15;65.73;100918.66;4969056;28;1587;-71
2021/01/29 08:36:41;;;;;;;;;;;;;;;18.13;65.55;100912.63;4943641;29;1517;-68
2021/01/29 08:39:22;;;;;;;;;;;;;;;18.14;65.64;100905.56;4949056;28;1330;-69
2021/01/29 08:41:53;;;;;;;;;;;;;;;18.16;65.34;100904.56;4933359;29;1564;-72
2021/01/29 08:44:40;;;;;;;;;;;;;;;18.16;65.09;100908.97;4917418;29;1117;-71
2021/01/29 08:47:18;;;;;;;;;;;;;;;18.14;65.32;100909.06;4929225;29;1191;-71
2021/01/29 08:49:54;;;;;;;;;;;;;;;18.12;65.38;100920.63;4932865;29;2321;-71
2021/01/29 08:52:45;;;;;;;;;;;;;;;18.13;65.37;100919.69;4949866;29;958;-70
2021/01/29 08:55:41;;;;;;;;;;;;;;;18.13;65.53;100919.69;4947752;29;1327;-73
2021/01/29 08:58:07;;;;;;;;;;;;;;;18.16;65.38;100930.06;4950113;29;827;-72
2021/01/29 09:00:35;;;;;;;;;;;;;;;18.21;65.19;100939.44;4948755;28;1384;-70
2021/01/29 09:03:20;;;;;;;;;;;;;;;18.23;64.68;100942.88;4917032;29;1518;-71
2021/01/29 09:05:48;;;;;;;;;;;;;;;18.33;65.18;100937.97;4966275;28;1686;-70
2021/01/29 09:08:17;;;;;;;;;;;;;;;18.31;65.39;100945.09;4950266;28;1979;-72
2021/01/29 09:10:46;;;;;;;;;;;;;;;18.29;65.21;100941.69;4950296;28;1202;-72
2021/01/29 09:13:19;;;;;;;;;;;;;;;18.30;65.50;100941.59;4932343;29;1293;-71
2021/01/29 09:15:57;;;;;;;;;;;;;;;18.33;65.15;100936.16;4949928;29;1340;-73
2021/01/29 09:18:46;;;;;;;;;;;;;;;18.35;64.95;100938.72;4949787;29;725;-72
2021/01/29 09:21:13;;;;;;;;;;;;;;;18.37;64.93;100939.50;4914485;29;1377;-71
2021/01/29 09:23:57;;;;;;;;;;;;;;;18.35;64.90;100939.59;4949714;29;756;-69
2021/01/29 09:26:31;;;;;;;;;;;;;;;18.38;64.82;100935.94;4931913;29;1328;-68
2021/01/29 09:29:24;;;;;;;;;;;;;;;18.53;65.01;100935.16;4949714;29;1974;-69
2021/01/29 09:32:02;;;;;;;;;;;;;;;18.58;64.06;100934.91;4972593;28;1297;-69
2021/01/29 09:34:37;;;;;;;;;;;;;;;18.53;64.62;100925.47;4954758;28;1335;-68
2021/01/29 09:37:14;;;;;;;;;;;;;;;18.47;64.66;100931.03;4987960;28;1157;-68
2021/01/29 09:40:01;;;;;;;;;;;;;;;18.46;64.94;100933.75;4986211;28;1512;-67
2021/01/29 09:42:48;;;;;;;;;;;;;;;18.46;64.94;100928.47;4968526;28;776;-68
2021/01/29 09:45:16;;;;;;;;;;;;;;;18.46;64.74;100928.47;4968512;28;1373;-68
2021/01/29 09:47:44;;;;;;;;;;;;;;;18.46;64.66;100931.97;4950993;28;1581;-68
2021/01/29 09:50:17;;;;;;;;;;;;;;;18.46;64.67;100925.81;4951135;28;1269;-67
2021/01/29 09:52:58;;;;;;;;;;;;;;;18.46;64.66;100931.09;4968496;28;767;-69
2021/01/29 09:55:30;;;;;;;;;;;;;;;18.46;64.61;100928.47;4950850;28;1261;-68
2021/01/29 09:58:07;;;;;;;;;;;;;;;18.48;64.45;100932.72;4968332;28;1016;-68
2021/01/29 10:00:36;;;;;;;;;;;;;;;18.49;64.34;100923.06;4935408;28;1227;-68
2021/01/29 10:03:22;;;;;;;;;;;;;;;18.50;64.18;100927.41;4969189;28;1104;-68
2021/01/29 10:05:51;;;;;;;;;;;;;;;18.50;64.26;100935.31;4968020;28;1292;-68
2021/01/29 10:08:17;;;;;;;;;;;;;;;18.50;64.00;100932.69;4967220;28;1973;-68
2021/01/29 10:10:48;;;;;;;;;;;;;;;18.51;63.90;100932.59;4968456;28;1352;-68
2021/01/29 10:13:27;;;;;;;;;;;;;;;18.52;64.00;100931.66;4950992;28;1219;-69
2021/01/29 10:16:07;;;;;;;;;;;;;;;18.53;64.17;100940.44;4953199;28;1242;-66
2021/01/29 10:18:35;;;;;;;;;;;;;;;18.53;64.01;100937.81;4971599;28;1077;-66
2021/01/29 10:21:13;;;;;;;;;;;;;;;18.54;63.69;100932.44;4970301;28;1277;-68
2021/01/29 10:23:59;;;;;;;;;;;;;;;18.57;63.67;100933.22;4954047;28;1561;-67
2021/01/29 10:26:32;;;;;;;;;;;;;;;18.59;62.21;100932.19;4982860;28;1248;-67
2021/01/29 10:29:04;;;;;;;;;;;;;;;18.59;60.94;100928.69;4971906;28;1902;-68
2021/01/29 10:31:39;;;;;;;;;;;;;;;18.61;60.24;100926.81;4954360;28;1277;-68
2021/01/29 10:34:32;;;;;;;;;;;;;;;18.58;60.47;100938.41;4971853;28;977;-66
2021/01/29 10:37:11;;;;;;;;;;;;;;;18.59;59.73;100926.06;4968909;28;1109;-66
2021/01/29 10:39:54;;;;;;;;;;;;;;;18.58;59.80;100930.47;4954181;28;1223;-67
2021/01/29 10:42:26;;;;;;;;;;;;;;;18.56;58.52;100924.44;4970288;28;1205;-66
2021/01/29 10:44:53;;;;;;;;;;;;;;;18.53;58.77;100930.75;4971866;28;1309;-66
2021/01/29 10:47:40;;;;;;;;;;;;;;;18.57;58.16;100920.88;4938557;28;1203;-68
2021/01/29 10:50:17;;;;;;;;;;;;;;;18.58;58.20;100906.75;4954587;28;1987;-66
2021/01/29 10:52:43;;;;;;;;;;;;;;;18.55;57.57;100904.25;4953856;28;1203;-66
2021/01/29 10:55:17;;;;;;;;;;;;;;;18.57;58.06;100904.19;4970997;28;1623;-67
2021/01/29 10:57:58;;;;;;;;;;;;;;;18.50;57.94;100904.53;4973569;28;1053;-67
2021/01/29 11:00:29;;;;;;;;;;;;;;;18.55;57.92;100901.63;4975118;28;1350;-67
2021/01/29 11:03:03;;;;;;;;;;;;;;;18.53;58.08;100900.88;4971886;28;835;-67
2021/01/29 11:05:31;;;;;;;;;;;;;;;18.52;58.10;100897.38;4970796;28;1372;-68
2021/01/29 11:08:04;;;;;;;;;;;;;;;18.49;58.99;100892.25;4970923;28;1906;-66
2021/01/29 11:10:31;;;;;;;;;;;;;;;18.48;58.32;100887.06;4971144;28;1380;-68
2021/01/29 11:13:15;;;;;;;;;;;;;;;18.50;58.56;100882.56;4937720;28;1291;-68
2021/01/29 11:15:42;;;;;;;;;;;;;;;18.51;58.44;100881.66;4937882;28;1372;-66
2021/01/29 11:18:20;;;;;;;;;;;;;;;18.50;58.64;100880.78;4954011;28;1006;-67
2021/01/29 11:20:47;;;;;;;;;;;;;;;18.52;59.09;100876.28;4953666;28;1195;-66
2021/01/29 11:23:20;;;;;;;;;;;;;;;18.50;58.85;100874.66;4953064;28;1376;-65
2021/01/29 11:26:04;;;;;;;;;;;;;;;18.57;59.02;100875.19;4970743;28;1282;-68
2021/01/29 11:28:46;;;;;;;;;;;;;;;18.51;59.63;100874.56;4969924;28;1973;-67
2021/01/29 11:31:12;;;;;;;;;;;;;;;18.51;59.47;100871.09;4970740;28;1204;-65
2021/01/29 11:33:41;;;;;;;;;;;;;;;18.47;59.66;100867.72;4953512;28;870;-65
2021/01/29 11:36:23;;;;;;;;;;;;;;;18.49;59.53;100867.66;4937225;28;1286;-67
2021/01/29 11:38:53;;;;;;;;;;;;;;;18.49;59.93;100859.75;4953011;28;1288;-65
2021/01/29 11:41:38;;;;;;;;;;;;;;;18.44;60.02;100856.50;4973043;28;1504;-66
2021/01/29 11:44:19;;;;;;;;;;;;;;;18.46;59.99;100844.91;4969194;28;1062;-65
2021/01/29 11:46:46;;;;;;;;;;;;;;;18.53;59.64;100850.75;4970549;28;1372;-68
2021/01/29 11:49:16;;;;;;;;;;;;;;;18.57;59.22;100852.28;4953314;28;1919;-68
2021/01/29 11:51:48;;;;;;;;;;;;;;;18.59;58.75;100839.84;4969455;28;1234;-68
2021/01/29 11:54:24;;;;;;;;;;;;;;;18.54;59.34;100832.19;4953361;28;764;-68
2021/01/29 11:56:50;;;;;;;;;;;;;;;18.48;59.94;100824.56;4970797;28;1269;-71
2021/01/29 11:59:16;;;;;;;;;;;;;;;18.44;60.19;100804.59;4970582;28;772;-69
2021/01/29 12:01:47;;;;;;;;;;;;;;;18.48;59.98;100811.38;4970755;28;1316;-70
2021/01/29 12:04:24;;;;;;;;;;;;;;;18.44;60.26;100815.13;4970677;28;1224;-71
2021/01/29 12:07:11;;;;;;;;;;;;;;;18.41;60.71;100801.25;4970468;28;1314;-71
2021/01/29 12:09:56;;;;;;;;;;;;;;;18.39;60.92;100801.34;4952472;28;1910;-68
2021/01/29 12:12:45;;;;;;;;;;;;;;;18.38;60.85;100791.75;4970366;28;827;-67
2021/01/29 12:15:15;;;;;;;;;;;;;;;18.39;61.04;100785.50;4970024;28;1222;-68
2021/01/29 12:17:50;;;;;;;;;;;;;;;18.37;60.74;100791.81;4970344;28;1202;-67
2021/01/29 12:20:28;;;;;;;;;;;;;;;18.38;60.93;100783.81;4970022;28;1399;-69
2021/01/29 12:23:12;;;;;;;;;;;;;;;18.37;60.59;100781.25;4952201;28;1124;-68
2021/01/29 12:25:46;;;;;;;;;;;;;;;18.37;60.65;100775.97;4969812;28;1300;-68
2021/01/29 12:28:22;;;;;;;;;;;;;;;18.37;60.59;100774.19;4953894;28;1990;-66
2021/01/29 12:31:03;;;;;;;;;;;;;;;18.36;60.21;100764.56;4970315;28;1265;-67
2021/01/29 12:33:31;;;;;;;;;;;;;;;18.36;60.30;100761.94;4952825;28;1363;-66
2021/01/29 12:36:01;;;;;;;;;;;;;;;18.41;59.91;100756.44;4969966;28;1201;-66
2021/01/29 12:38:40;;;;;;;;;;;;;;;18.44;59.99;100753.63;4951918;28;772;-67
2021/01/29 12:41:20;;;;;;;;;;;;;;;18.39;59.46;100753.84;4970068;28;1571;-68
2021/01/29 12:43:56;;;;;;;;;;;;;;;18.38;60.04;100746.03;4968089;28;1179;-66
2021/01/29 12:46:26;;;;;;;;;;;;;;;18.37;59.32;100746.97;4969599;28;1158;-66
2021/01/29 12:48:53;;;;;;;;;;;;;;;18.35;59.55;100741.81;4969928;28;1910;-67
2021/01/29 12:51:46;;;;;;;;;;;;;;;18.36;59.16;100732.09;4964599;28;1747;-67
2021/01/29 12:54:30;;;;;;;;;;;;;;;18.35;59.37;100733.03;4946899;28;1349;-65
2021/01/29 12:56:59;;;;;;;;;;;;;;;18.46;59.79;100720.94;4950492;29;1198;-67
2021/01/29 12:59:34;;;;;;;;;;;;;;;18.46;59.44;100725.38;4961185;28;1228;-67
2021/01/29 13:02:07;;;;;;;;;;;;;;;18.47;59.11;100738.47;4969276;28;994;-70
2021/01/29 13:04:41;;;;;;;;;;;;;;;18.50;59.35;100730.44;4969388;28;1310;-70
2021/01/29 13:07:18;;;;;;;;;;;;;;;18.43;59.69;100720.25;4969521;28;1660;-69
2021/01/29 13:10:08;;;;;;;;;;;;;;;18.49;60.53;100718.16;4917793;29;1924;-67
2021/01/29 13:12:50;;;;;;;;;;;;;;;18.74;58.97;100712.34;4932390;29;1477;-70
2021/01/29 13:15:23;;;;;;;;;;;;;;;18.65;60.11;100709.38;4932585;29;1466;-70
2021/01/29 13:18:00;;;;;;;;;;;;;;;18.60;60.22;100690.34;4932456;29;777;-68
2021/01/29 13:20:34;;;;;;;;;;;;;;;18.61;60.45;100706.06;4932958;29;1316;-77
2021/01/29 13:23:18;;;;;;;;;;;;;;;18.61;60.76;100716.63;4950504;29;866;-74
2021/01/29 13:25:53;;;;;;;;;;;;;;;18.62;59.94;100713.06;4949760;28;1249;-72
2021/01/29 13:28:19;;;;;;;;;;;;;;;18.61;60.09;100710.47;4951978;28;1906;-69
2021/01/29 13:30:46;;;;;;;;;;;;;;;18.60;60.14;100704.38;4968783;28;1575;-73